sensor_id;sensor_type;location;lat;lon;timestamp;pressure;altitude;pressure_sealevel;temperature;humidity
40171;BME280;37650;52.790;18.268;2023-02-11T00:00:12;101688.94;;;1.04;100.00
40171;BME280;37650;52.790;18.268;2023-02-11T00:03:53;101675.14;;;1.05;100.00
40171;BME280;37650;52.790;18.268;2023-02-11T00:07:14;101684.47;;;1.05;100.00
40171;BME280;37650;52.790;18.268;2023-02-11T00:10:35;101684.80;;;1.05;100.00
40171;BME280;37650;52.790;18.268;2023-02-11T00:13:58;101675.30;;;1.04;100.00
40171;BME280;37650;52.790;18.268;2023-02-11T00:17:20;101678.77;;;1.05;100.00
40171;BME280;37650;52.790;18.268;2023-02-11T00:20:41;101671.39;;;1.07;100.00
40171;BME280;37650;52.790;18.268;2023-02-11T00:24:02;101661.27;;;1.11;100.00
40171;BME280;37650;52.790;18.268;2023-02-11T00:27:23;101640.89;;;1.11;100.00
40171;BME280;37650;52.790;18.268;2023-02-11T00:30:44;101614.50;;;1.14;100.00
40171;BME280;37650;52.790;18.268;2023-02-11T00:34:05;101599.51;;;1.16;100.00
40171;BME280;37650;52.790;18.268;2023-02-11T00:37:26;101615.24;;;1.16;100.00
40171;BME280;37650;52.790;18.268;2023-02-11T00:40:47;101620.54;;;1.14;100.00
40171;BME280;37650;52.790;18.268;2023-02-11T00:44:08;101629.70;;;1.14;100.00
40171;BME280;37650;52.790;18.268;2023-02-11T00:47:29;101651.36;;;1.16;100.00
40171;BME280;37650;52.790;18.268;2023-02-11T00:50:50;101655.89;;;1.18;100.00
40171;BME280;37650;52.790;18.268;2023-02-11T00:54:11;101642.30;;;1.20;100.00
40171;BME280;37650;52.790;18.268;2023-02-11T00:57:32;101611.70;;;1.20;100.00
40171;BME280;37650;52.790;18.268;2023-02-11T01:00:54;101607.15;;;1.18;100.00
40171;BME280;37650;52.790;18.268;2023-02-11T01:04:15;101603.00;;;1.18;100.00
40171;BME280;37650;52.790;18.268;2023-02-11T01:07:37;101604.45;;;1.21;100.00
40171;BME280;37650;52.790;18.268;2023-02-11T01:11:03;101621.95;;;1.23;100.00
40171;BME280;37650;52.790;18.268;2023-02-11T01:14:24;101627.66;;;1.23;100.00
40171;BME280;37650;52.790;18.268;2023-02-11T01:17:46;101610.23;;;1.24;100.00
40171;BME280;37650;52.790;18.268;2023-02-11T01:21:07;101612.49;;;1.25;100.00
40171;BME280;37650;52.790;18.268;2023-02-11T01:24:28;101577.27;;;1.27;100.00
40171;BME280;37650;52.790;18.268;2023-02-11T01:27:49;101564.95;;;1.25;100.00
40171;BME280;37650;52.790;18.268;2023-02-11T01:31:10;101577.69;;;1.22;100.00
40171;BME280;37650;52.790;18.268;2023-02-11T01:34:31;101569.05;;;1.22;100.00
40171;BME280;37650;52.790;18.268;2023-02-11T01:37:52;101557.13;;;1.22;100.00
40171;BME280;37650;52.790;18.268;2023-02-11T01:41:13;101531.14;;;1.20;100.00
40171;BME280;37650;52.790;18.268;2023-02-11T01:44:37;101529.20;;;1.17;100.00
40171;BME280;37650;52.790;18.268;2023-02-11T01:47:59;101534.92;;;1.18;100.00
40171;BME280;37650;52.790;18.268;2023-02-11T01:51:29;101528.58;;;1.21;100.00
40171;BME280;37650;52.790;18.268;2023-02-11T01:54:59;101525.46;;;1.21;100.00
40171;BME280;37650;52.790;18.268;2023-02-11T01:58:41;101509.51;;;1.18;100.00
40171;BME280;37650;52.790;18.268;2023-02-11T02:02:07;101511.77;;;1.19;100.00
40171;BME280;37650;52.790;18.268;2023-02-11T02:05:34;101494.20;;;1.21;100.00
40171;BME280;37650;52.790;18.268;2023-02-11T02:09:16;101482.08;;;1.21;100.00
40171;BME280;37650;52.790;18.268;2023-02-11T02:12:39;101471.37;;;1.21;100.00
40171;BME280;37650;52.790;18.268;2023-02-11T02:16:04;101467.20;;;1.20;100.00
40171;BME280;37650;52.790;18.268;2023-02-11T02:23:14;101453.73;;;1.21;100.00
40171;BME280;37650;52.790;18.268;2023-02-11T02:31:43;101443.16;;;1.19;100.00
40171;BME280;37650;52.790;18.268;2023-02-11T02:34:52;101448.02;;;1.20;100.00
40171;BME280;37650;52.790;18.268;2023-02-11T02:38:23;101450.13;;;1.23;100.00
40171;BME280;37650;52.790;18.268;2023-02-11T02:41:47;101447.73;;;1.24;100.00
40171;BME280;37650;52.790;18.268;2023-02-11T02:45:10;101451.02;;;1.24;100.00
40171;BME280;37650;52.790;18.268;2023-02-11T02:48:32;101444.14;;;1.25;100.00
40171;BME280;37650;52.790;18.268;2023-02-11T02:52:03;101431.55;;;1.28;100.00
40171;BME280;37650;52.790;18.268;2023-02-11T02:55:34;101421.90;;;1.30;100.00
40171;BME280;37650;52.790;18.268;2023-02-11T03:03:06;101400.06;;;1.25;100.00
40171;BME280;37650;52.790;18.268;2023-02-11T03:10:00;101398.21;;;1.28;100.00
40171;BME280;37650;52.790;18.268;2023-02-11T03:13:26;101397.86;;;1.28;100.00
40171;BME280;37650;52.790;18.268;2023-02-11T03:16:50;101391.45;;;1.28;100.00
40171;BME280;37650;52.790;18.268;2023-02-11T03:20:14;101393.39;;;1.30;100.00
40171;BME280;37650;52.790;18.268;2023-02-11T03:23:42;101384.61;;;1.32;100.00
40171;BME280;37650;52.790;18.268;2023-02-11T03:30:52;101361.63;;;1.32;100.00
40171;BME280;37650;52.790;18.268;2023-02-11T03:34:24;101359.39;;;1.34;100.00
40171;BME280;37650;52.790;18.268;2023-02-11T03:37:54;101349.89;;;1.34;100.00
40171;BME280;37650;52.790;18.268;2023-02-11T03:41:20;101349.02;;;1.33;100.00
40171;BME280;37650;52.790;18.268;2023-02-11T03:44:47;101341.41;;;1.33;100.00
40171;BME280;37650;52.790;18.268;2023-02-11T03:48:20;101339.14;;;1.32;100.00
40171;BME280;37650;52.790;18.268;2023-02-11T03:51:42;101337.44;;;1.34;100.00
40171;BME280;37650;52.790;18.268;2023-02-11T03:55:12;101345.58;;;1.35;100.00
40171;BME280;37650;52.790;18.268;2023-02-11T03:58:35;101350.92;;;1.34;100.00
40171;BME280;37650;52.790;18.268;2023-02-11T04:01:56;101345.23;;;1.33;100.00
40171;BME280;37650;52.790;18.268;2023-02-11T04:05:18;101337.27;;;1.35;100.00
40171;BME280;37650;52.790;18.268;2023-02-11T04:08:39;101327.23;;;1.33;100.00
40171;BME280;37650;52.790;18.268;2023-02-11T04:12:00;101316.69;;;1.34;100.00
40171;BME280;37650;52.790;18.268;2023-02-11T04:15:21;101300.98;;;1.35;100.00
40171;BME280;37650;52.790;18.268;2023-02-11T04:18:41;101300.69;;;1.38;100.00
40171;BME280;37650;52.790;18.268;2023-02-11T04:22:04;101303.15;;;1.41;100.00
40171;BME280;37650;52.790;18.268;2023-02-11T04:25:25;101294.84;;;1.41;100.00
40171;BME280;37650;52.790;18.268;2023-02-11T04:28:46;101287.21;;;1.38;100.00
40171;BME280;37650;52.790;18.268;2023-02-11T04:32:08;101282.20;;;1.39;100.00
40171;BME280;37650;52.790;18.268;2023-02-11T04:35:29;101269.59;;;1.40;100.00
40171;BME280;37650;52.790;18.268;2023-02-11T04:38:50;101266.11;;;1.38;100.00
40171;BME280;37650;52.790;18.268;2023-02-11T04:42:11;101260.73;;;1.37;100.00
40171;BME280;37650;52.790;18.268;2023-02-11T04:45:32;101261.60;;;1.37;100.00
40171;BME280;37650;52.790;18.268;2023-02-11T04:48:53;101259.87;;;1.37;100.00
40171;BME280;37650;52.790;18.268;2023-02-11T04:52:14;101257.48;;;1.38;100.00
40171;BME280;37650;52.790;18.268;2023-02-11T04:55:34;101254.69;;;1.37;100.00
40171;BME280;37650;52.790;18.268;2023-02-11T04:58:55;101258.82;;;1.37;100.00
40171;BME280;37650;52.790;18.268;2023-02-11T05:02:16;101256.38;;;1.36;100.00
40171;BME280;37650;52.790;18.268;2023-02-11T05:05:39;101257.27;;;1.37;100.00
40171;BME280;37650;52.790;18.268;2023-02-11T05:09:00;101249.45;;;1.34;100.00
40171;BME280;37650;52.790;18.268;2023-02-11T05:12:21;101245.13;;;1.34;100.00
40171;BME280;37650;52.790;18.268;2023-02-11T05:15:42;101237.36;;;1.35;100.00
40171;BME280;37650;52.790;18.268;2023-02-11T05:19:02;101238.08;;;1.36;100.00
40171;BME280;37650;52.790;18.268;2023-02-11T05:22:23;101227.52;;;1.36;100.00
40171;BME280;37650;52.790;18.268;2023-02-11T05:25:44;101223.23;;;1.37;100.00
40171;BME280;37650;52.790;18.268;2023-02-11T05:29:05;101220.29;;;1.37;100.00
40171;BME280;37650;52.790;18.268;2023-02-11T05:32:27;101214.20;;;1.34;100.00
40171;BME280;37650;52.790;18.268;2023-02-11T05:35:48;101202.27;;;1.35;100.00
40171;BME280;37650;52.790;18.268;2023-02-11T05:39:08;101194.65;;;1.35;100.00
40171;BME280;37650;52.790;18.268;2023-02-11T05:42:30;101198.14;;;1.36;100.00
40171;BME280;37650;52.790;18.268;2023-02-11T05:45:51;101192.61;;;1.36;100.00
40171;BME280;37650;52.790;18.268;2023-02-11T05:49:12;101182.23;;;1.36;100.00
40171;BME280;37650;52.790;18.268;2023-02-11T05:52:33;101177.06;;;1.37;100.00
40171;BME280;37650;52.790;18.268;2023-02-11T05:55:54;101161.52;;;1.38;100.00
40171;BME280;37650;52.790;18.268;2023-02-11T05:59:15;101152.20;;;1.39;100.00
40171;BME280;37650;52.790;18.268;2023-02-11T06:02:36;101150.32;;;1.41;100.00
40171;BME280;37650;52.790;18.268;2023-02-11T06:05:57;101147.21;;;1.41;100.00
40171;BME280;37650;52.790;18.268;2023-02-11T06:09:18;101152.75;;;1.42;100.00
40171;BME280;37650;52.790;18.268;2023-02-11T06:12:38;101153.64;;;1.43;100.00
40171;BME280;37650;52.790;18.268;2023-02-11T06:16:01;101166.11;;;1.46;100.00
40171;BME280;37650;52.790;18.268;2023-02-11T06:19:22;101167.17;;;1.47;100.00
40171;BME280;37650;52.790;18.268;2023-02-11T06:22:42;101160.75;;;1.46;100.00
40171;BME280;37650;52.790;18.268;2023-02-11T06:26:08;101150.42;;;1.49;100.00
40171;BME280;37650;52.790;18.268;2023-02-11T06:29:34;101150.82;;;1.53;100.00
40171;BME280;37650;52.790;18.268;2023-02-11T06:32:57;101162.25;;;1.55;100.00
40171;BME280;37650;52.790;18.268;2023-02-11T06:36:19;101158.77;;;1.53;100.00
40171;BME280;37650;52.790;18.268;2023-02-11T06:39:40;101154.43;;;1.52;100.00
40171;BME280;37650;52.790;18.268;2023-02-11T06:43:03;101152.73;;;1.53;100.00
40171;BME280;37650;52.790;18.268;2023-02-11T06:46:24;101149.45;;;1.54;100.00
40171;BME280;37650;52.790;18.268;2023-02-11T06:49:45;101153.27;;;1.56;100.00
40171;BME280;37650;52.790;18.268;2023-02-11T06:53:06;101147.60;;;1.59;100.00
40171;BME280;37650;52.790;18.268;2023-02-11T06:56:27;101139.98;;;1.58;100.00
40171;BME280;37650;52.790;18.268;2023-02-11T06:59:48;101143.59;;;1.56;100.00
40171;BME280;37650;52.790;18.268;2023-02-11T07:03:09;101139.80;;;1.57;100.00
40171;BME280;37650;52.790;18.268;2023-02-11T07:06:30;101142.95;;;1.61;100.00
40171;BME280;37650;52.790;18.268;2023-02-11T07:09:51;101144.20;;;1.64;100.00
40171;BME280;37650;52.790;18.268;2023-02-11T07:13:12;101146.30;;;1.67;100.00
40171;BME280;37650;52.790;18.268;2023-02-11T07:16:34;101156.02;;;1.68;100.00
40171;BME280;37650;52.790;18.268;2023-02-11T07:19:54;101162.95;;;1.71;100.00
40171;BME280;37650;52.790;18.268;2023-02-11T07:23:15;101153.11;;;1.73;100.00
40171;BME280;37650;52.790;18.268;2023-02-11T07:26:37;101140.98;;;1.72;100.00
40171;BME280;37650;52.790;18.268;2023-02-11T07:29:59;101130.25;;;1.71;100.00
40171;BME280;37650;52.790;18.268;2023-02-11T07:33:20;101127.48;;;1.72;100.00
40171;BME280;37650;52.790;18.268;2023-02-11T07:36:41;101121.98;;;1.73;100.00
40171;BME280;37650;52.790;18.268;2023-02-11T07:40:03;101129.91;;;1.71;100.00
40171;BME280;37650;52.790;18.268;2023-02-11T07:43:24;101125.92;;;1.69;100.00
40171;BME280;37650;52.790;18.268;2023-02-11T07:46:45;101119.01;;;1.69;100.00
40171;BME280;37650;52.790;18.268;2023-02-11T07:50:09;101120.75;;;1.72;100.00
40171;BME280;37650;52.790;18.268;2023-02-11T07:53:30;101119.91;;;1.73;100.00
40171;BME280;37650;52.790;18.268;2023-02-11T07:56:51;101108.14;;;1.73;100.00
40171;BME280;37650;52.790;18.268;2023-02-11T08:00:13;101092.74;;;1.73;100.00
40171;BME280;37650;52.790;18.268;2023-02-11T08:03:35;101092.80;;;1.78;100.00
40171;BME280;37650;52.790;18.268;2023-02-11T08:06:56;101102.17;;;1.82;100.00
40171;BME280;37650;52.790;18.268;2023-02-11T08:10:18;101115.52;;;1.84;100.00
40171;BME280;37650;52.790;18.268;2023-02-11T08:13:39;101108.23;;;1.81;100.00
40171;BME280;37650;52.790;18.268;2023-02-11T08:17:00;101102.70;;;1.83;100.00
40171;BME280;37650;52.790;18.268;2023-02-11T08:20:21;101114.85;;;1.85;100.00
40171;BME280;37650;52.790;18.268;2023-02-11T08:23:42;101105.15;;;1.84;100.00
40171;BME280;37650;52.790;18.268;2023-02-11T08:27:03;101086.65;;;1.84;100.00
40171;BME280;37650;52.790;18.268;2023-02-11T08:30:24;101066.92;;;1.86;100.00
40171;BME280;37650;52.790;18.268;2023-02-11T08:33:46;101051.06;;;1.90;100.00
40171;BME280;37650;52.790;18.268;2023-02-11T08:37:06;101033.80;;;1.97;100.00
40171;BME280;37650;52.790;18.268;2023-02-11T08:40:28;101044.92;;;2.02;100.00
40171;BME280;37650;52.790;18.268;2023-02-11T08:43:50;101064.66;;;2.03;100.00
40171;BME280;37650;52.790;18.268;2023-02-11T08:47:11;101059.83;;;2.04;100.00
40171;BME280;37650;52.790;18.268;2023-02-11T08:50:33;101075.61;;;2.09;100.00
40171;BME280;37650;52.790;18.268;2023-02-11T08:53:55;101079.48;;;2.17;100.00
40171;BME280;37650;52.790;18.268;2023-02-11T08:57:16;101094.78;;;2.24;100.00
40171;BME280;37650;52.790;18.268;2023-02-11T09:00:37;101082.88;;;2.30;100.00
40171;BME280;37650;52.790;18.268;2023-02-11T09:03:58;101072.52;;;2.35;100.00
40171;BME280;37650;52.790;18.268;2023-02-11T09:07:20;101072.92;;;2.40;100.00
40171;BME280;37650;52.790;18.268;2023-02-11T09:10:42;101066.05;;;2.47;100.00
40171;BME280;37650;52.790;18.268;2023-02-11T09:14:03;101080.83;;;2.55;100.00
40171;BME280;37650;52.790;18.268;2023-02-11T09:17:24;101063.35;;;2.60;100.00
40171;BME280;37650;52.790;18.268;2023-02-11T09:20:46;101065.29;;;2.65;100.00
40171;BME280;37650;52.790;18.268;2023-02-11T09:24:07;101072.08;;;2.70;100.00
40171;BME280;37650;52.790;18.268;2023-02-11T09:27:28;101055.99;;;2.72;100.00
40171;BME280;37650;52.790;18.268;2023-02-11T09:30:49;101048.53;;;2.72;100.00
40171;BME280;37650;52.790;18.268;2023-02-11T09:34:10;101052.19;;;2.76;100.00
40171;BME280;37650;52.790;18.268;2023-02-11T09:37:31;101051.49;;;2.78;100.00
40171;BME280;37650;52.790;18.268;2023-02-11T09:40:52;101051.71;;;2.82;100.00
40171;BME280;37650;52.790;18.268;2023-02-11T09:44:25;101059.84;;;2.84;100.00
40171;BME280;37650;52.790;18.268;2023-02-11T09:47:58;101067.30;;;2.83;100.00
40171;BME280;37650;52.790;18.268;2023-02-11T09:51:42;101040.96;;;2.82;100.00
40171;BME280;37650;52.790;18.268;2023-02-11T09:58:41;101042.20;;;2.87;100.00
40171;BME280;37650;52.790;18.268;2023-02-11T10:06:03;101017.59;;;2.86;100.00
40171;BME280;37650;52.790;18.268;2023-02-11T10:13:21;100990.20;;;2.86;100.00
40171;BME280;37650;52.790;18.268;2023-02-11T10:23:58;100933.73;;;2.88;100.00
40171;BME280;37650;52.790;18.268;2023-02-11T10:27:23;100919.16;;;2.89;100.00
40171;BME280;37650;52.790;18.268;2023-02-11T10:30:59;100903.92;;;2.91;100.00
40171;BME280;37650;52.790;18.268;2023-02-11T10:34:21;100917.98;;;2.96;100.00
40171;BME280;37650;52.790;18.268;2023-02-11T10:37:42;100937.04;;;3.01;100.00
40171;BME280;37650;52.790;18.268;2023-02-11T10:41:04;100962.88;;;3.05;100.00
40171;BME280;37650;52.790;18.268;2023-02-11T10:44:33;100976.58;;;3.07;100.00
40171;BME280;37650;52.790;18.268;2023-02-11T10:47:55;100975.20;;;3.11;100.00
40171;BME280;37650;52.790;18.268;2023-02-11T10:58:40;101008.34;;;3.18;100.00
40171;BME280;37650;52.790;18.268;2023-02-11T11:02:16;101017.36;;;3.22;100.00
40171;BME280;37650;52.790;18.268;2023-02-11T11:06:02;101022.05;;;3.23;100.00
40171;BME280;37650;52.790;18.268;2023-02-11T11:09:29;101029.86;;;3.23;100.00
40171;BME280;37650;52.790;18.268;2023-02-11T11:12:50;101024.84;;;3.27;100.00
40171;BME280;37650;52.790;18.268;2023-02-11T11:19:31;101021.39;;;3.35;100.00
40171;BME280;37650;52.790;18.268;2023-02-11T11:23:19;101011.00;;;3.41;100.00
40171;BME280;37650;52.790;18.268;2023-02-11T11:26:47;101011.36;;;3.41;100.00
40171;BME280;37650;52.790;18.268;2023-02-11T11:30:14;101010.31;;;3.39;100.00
40171;BME280;37650;52.790;18.268;2023-02-11T11:33:40;101011.17;;;3.42;100.00
40171;BME280;37650;52.790;18.268;2023-02-11T11:37:12;101009.61;;;3.42;100.00
40171;BME280;37650;52.790;18.268;2023-02-11T11:40:34;101010.85;;;3.46;100.00
40171;BME280;37650;52.790;18.268;2023-02-11T11:44:30;101008.58;;;3.47;100.00
40171;BME280;37650;52.790;18.268;2023-02-11T11:47:51;101012.23;;;3.47;100.00
40171;BME280;37650;52.790;18.268;2023-02-11T11:51:16;101013.98;;;3.50;100.00
40171;BME280;37650;52.790;18.268;2023-02-11T11:54:39;101017.09;;;3.54;100.00
40171;BME280;37650;52.790;18.268;2023-02-11T11:58:04;101014.68;;;3.56;100.00
40171;BME280;37650;52.790;18.268;2023-02-11T12:05:13;101009.65;;;3.63;100.00
40171;BME280;37650;52.790;18.268;2023-02-11T12:09:03;100997.33;;;3.65;100.00
40171;BME280;37650;52.790;18.268;2023-02-11T12:26:24;100989.71;;;3.83;100.00
40171;BME280;37650;52.790;18.268;2023-02-11T12:40:26;100978.93;;;4.05;100.00
40171;BME280;37650;52.790;18.268;2023-02-11T12:43:50;100979.62;;;4.13;100.00
40171;BME280;37650;52.790;18.268;2023-02-11T12:55:30;100992.28;;;4.22;100.00
40171;BME280;37650;52.790;18.268;2023-02-11T12:58:51;100987.41;;;4.24;100.00
40171;BME280;37650;52.790;18.268;2023-02-11T13:06:23;100983.77;;;4.22;100.00
40171;BME280;37650;52.790;18.268;2023-02-11T13:10:46;100995.07;;;4.20;100.00
40171;BME280;37650;52.790;18.268;2023-02-11T13:36:19;101022.67;;;4.33;100.00
40171;BME280;37650;52.790;18.268;2023-02-11T13:39:41;101029.27;;;4.34;100.00
40171;BME280;37650;52.790;18.268;2023-02-11T13:43:05;101022.83;;;4.34;100.00
40171;BME280;37650;52.790;18.268;2023-02-11T13:46:55;101024.93;;;4.32;100.00
40171;BME280;37650;52.790;18.268;2023-02-11T13:50:21;101029.44;;;4.30;100.00
40171;BME280;37650;52.790;18.268;2023-02-11T13:53:57;101025.96;;;4.30;100.00
40171;BME280;37650;52.790;18.268;2023-02-11T13:57:26;101033.79;;;4.30;100.00
40171;BME280;37650;52.790;18.268;2023-02-11T14:00:50;101038.65;;;4.32;100.00
40171;BME280;37650;52.790;18.268;2023-02-11T14:04:23;101045.77;;;4.33;100.00
40171;BME280;37650;52.790;18.268;2023-02-11T14:11:50;101048.88;;;4.34;100.00
40171;BME280;37650;52.790;18.268;2023-02-11T14:26:30;101065.58;;;4.31;100.00
40171;BME280;37650;52.790;18.268;2023-02-11T14:34:13;101076.69;;;4.33;100.00
40171;BME280;37650;52.790;18.268;2023-02-11T14:41:28;101093.17;;;4.33;100.00
40171;BME280;37650;52.790;18.268;2023-02-11T14:44:52;101090.74;;;4.34;100.00
40171;BME280;37650;52.790;18.268;2023-02-11T14:48:16;101091.44;;;4.33;100.00
40171;BME280;37650;52.790;18.268;2023-02-11T14:51:39;101098.05;;;4.31;100.00
40171;BME280;37650;52.790;18.268;2023-02-11T14:55:13;101104.48;;;4.29;100.00
40171;BME280;37650;52.790;18.268;2023-02-11T14:58:36;101110.91;;;4.31;100.00
40171;BME280;37650;52.790;18.268;2023-02-11T15:01:57;101112.98;;;4.34;100.00
40171;BME280;37650;52.790;18.268;2023-02-11T15:05:23;101118.02;;;4.33;100.00
40171;BME280;37650;52.790;18.268;2023-02-11T15:08:55;101121.66;;;4.30;100.00
40171;BME280;37650;52.790;18.268;2023-02-11T15:12:24;101122.71;;;4.32;100.00
40171;BME280;37650;52.790;18.268;2023-02-11T15:15:48;101129.67;;;4.32;100.00
40171;BME280;37650;52.790;18.268;2023-02-11T15:19:28;101132.61;;;4.30;100.00
40171;BME280;37650;52.790;18.268;2023-02-11T15:22:58;101143.55;;;4.31;100.00
40171;BME280;37650;52.790;18.268;2023-02-11T15:26:20;101144.94;;;4.30;100.00
40171;BME280;37650;52.790;18.268;2023-02-11T15:29:44;101155.21;;;4.32;100.00
40171;BME280;37650;52.790;18.268;2023-02-11T15:33:21;101158.15;;;4.33;100.00
40171;BME280;37650;52.790;18.268;2023-02-11T15:36:42;101166.13;;;4.35;100.00
40171;BME280;37650;52.790;18.268;2023-02-11T15:40:21;101169.95;;;4.33;100.00
40171;BME280;37650;52.790;18.268;2023-02-11T15:43:48;101173.43;;;4.32;100.00
40171;BME280;37650;52.790;18.268;2023-02-11T15:47:18;101177.95;;;4.31;100.00
40171;BME280;37650;52.790;18.268;2023-02-11T15:50:42;101182.82;;;4.32;100.00
40171;BME280;37650;52.790;18.268;2023-02-11T15:54:24;101186.12;;;4.32;100.00
40171;BME280;37650;52.790;18.268;2023-02-11T15:57:55;101196.19;;;4.32;100.00
40171;BME280;37650;52.790;18.268;2023-02-11T16:01:34;101203.30;;;4.35;100.00
40171;BME280;37650;52.790;18.268;2023-02-11T16:05:08;101206.44;;;4.37;100.00
40171;BME280;37650;52.790;18.268;2023-02-11T16:08:30;101206.45;;;4.36;100.00
40171;BME280;37650;52.790;18.268;2023-02-11T16:11:56;101217.90;;;4.36;100.00
40171;BME280;37650;52.790;18.268;2023-02-11T16:15:30;101225.89;;;4.35;100.00
40171;BME280;37650;52.790;18.268;2023-02-11T16:19:02;101243.27;;;4.38;100.00
40171;BME280;37650;52.790;18.268;2023-02-11T16:22:28;101250.73;;;4.40;100.00
40171;BME280;37650;52.790;18.268;2023-02-11T16:26:04;101257.52;;;4.42;100.00
40171;BME280;37650;52.790;18.268;2023-02-11T16:29:30;101259.27;;;4.42;100.00
40171;BME280;37650;52.790;18.268;2023-02-11T16:32:55;101262.39;;;4.42;100.00
40171;BME280;37650;52.790;18.268;2023-02-11T16:36:18;101268.65;;;4.43;100.00
40171;BME280;37650;52.790;18.268;2023-02-11T16:39:41;101272.98;;;4.41;100.00
40171;BME280;37650;52.790;18.268;2023-02-11T16:43:03;101278.02;;;4.42;100.00
40171;BME280;37650;52.790;18.268;2023-02-11T16:46:24;101283.59;;;4.44;100.00
40171;BME280;37650;52.790;18.268;2023-02-11T16:49:49;101278.19;;;4.44;100.00
40171;BME280;37650;52.790;18.268;2023-02-11T16:53:15;101284.79;;;4.44;100.00
40171;BME280;37650;52.790;18.268;2023-02-11T16:56:37;101288.45;;;4.46;100.00
40171;BME280;37650;52.790;18.268;2023-02-11T17:00:00;101292.45;;;4.49;100.00
40171;BME280;37650;52.790;18.268;2023-02-11T17:03:33;101299.75;;;4.48;100.00
40171;BME280;37650;52.790;18.268;2023-02-11T17:07:01;101308.45;;;4.47;100.00
40171;BME280;37650;52.790;18.268;2023-02-11T17:10:27;101316.08;;;4.46;100.00
40171;BME280;37650;52.790;18.268;2023-02-11T17:13:53;101319.38;;;4.45;100.00
40171;BME280;37650;52.790;18.268;2023-02-11T17:17:15;101325.30;;;4.48;100.00
40171;BME280;37650;52.790;18.268;2023-02-11T17:20:41;101333.64;;;4.48;100.00
40171;BME280;37650;52.790;18.268;2023-02-11T17:24:10;101331.36;;;4.49;100.00
40171;BME280;37650;52.790;18.268;2023-02-11T17:27:37;101343.55;;;4.52;100.00
40171;BME280;37650;52.790;18.268;2023-02-11T17:31:09;101354.49;;;4.52;100.00
40171;BME280;37650;52.790;18.268;2023-02-11T17:34:38;101361.96;;;4.50;100.00
40171;BME280;37650;52.790;18.268;2023-02-11T17:38:02;101365.95;;;4.50;100.00
40171;BME280;37650;52.790;18.268;2023-02-11T17:41:32;101370.11;;;4.50;100.00
40171;BME280;37650;52.790;18.268;2023-02-11T17:44:58;101373.41;;;4.50;100.00
40171;BME280;37650;52.790;18.268;2023-02-11T17:48:25;101380.20;;;4.50;100.00
40171;BME280;37650;52.790;18.268;2023-02-11T17:51:53;101384.55;;;4.52;100.00
40171;BME280;37650;52.790;18.268;2023-02-11T17:55:18;101389.08;;;4.52;100.00
40171;BME280;37650;52.790;18.268;2023-02-11T17:58:39;101393.77;;;4.53;100.00
40171;BME280;37650;52.790;18.268;2023-02-11T18:02:06;101394.47;;;4.55;100.00
40171;BME280;37650;52.790;18.268;2023-02-11T18:05:36;101396.20;;;4.54;100.00
40171;BME280;37650;52.790;18.268;2023-02-11T18:08:57;101406.95;;;4.48;100.00
40171;BME280;37650;52.790;18.268;2023-02-11T18:12:22;101414.95;;;4.47;100.00
40171;BME280;37650;52.790;18.268;2023-02-11T18:15:52;101417.55;;;4.48;100.00
40171;BME280;37650;52.790;18.268;2023-02-11T18:19:15;101417.91;;;4.48;100.00
40171;BME280;37650;52.790;18.268;2023-02-11T18:22:40;101421.90;;;4.47;100.00
40171;BME280;37650;52.790;18.268;2023-02-11T18:26:09;101425.37;;;4.47;100.00
40171;BME280;37650;52.790;18.268;2023-02-11T18:29:31;101429.02;;;4.46;100.00
40171;BME280;37650;52.790;18.268;2023-02-11T18:32:54;101433.17;;;4.45;100.00
40171;BME280;37650;52.790;18.268;2023-02-11T18:36:18;101438.38;;;4.41;100.00
40171;BME280;37650;52.790;18.268;2023-02-11T18:39:40;101441.67;;;4.41;100.00
40171;BME280;37650;52.790;18.268;2023-02-11T18:43:03;101443.91;;;4.39;100.00
40171;BME280;37650;52.790;18.268;2023-02-11T18:46:26;101445.98;;;4.38;100.00
40171;BME280;37650;52.790;18.268;2023-02-11T18:49:47;101451.92;;;4.41;100.00
40171;BME280;37650;52.790;18.268;2023-02-11T18:53:11;101451.06;;;4.42;100.00
40171;BME280;37650;52.790;18.268;2023-02-11T18:56:36;101460.98;;;4.44;100.00
40171;BME280;37650;52.790;18.268;2023-02-11T18:59:58;101467.58;;;4.43;100.00
40171;BME280;37650;52.790;18.268;2023-02-11T19:03:22;101479.20;;;4.41;100.00
40171;BME280;37650;52.790;18.268;2023-02-11T19:06:48;101482.82;;;4.39;100.00
40171;BME280;37650;52.790;18.268;2023-02-11T19:10:10;101490.81;;;4.38;100.00
40171;BME280;37650;52.790;18.268;2023-02-11T19:13:36;101494.29;;;4.40;100.00
40171;BME280;37650;52.790;18.268;2023-02-11T19:17:05;101495.19;;;4.42;100.00
40171;BME280;37650;52.790;18.268;2023-02-11T19:20:29;101501.45;;;4.42;100.00
40171;BME280;37650;52.790;18.268;2023-02-11T19:23:58;101506.48;;;4.42;100.00
40171;BME280;37650;52.790;18.268;2023-02-11T19:27:21;101514.11;;;4.40;100.00
40171;BME280;37650;52.790;18.268;2023-02-11T19:30:44;101516.69;;;4.39;100.00
40171;BME280;37650;52.790;18.268;2023-02-11T19:34:06;101516.20;;;4.40;100.00
40171;BME280;37650;52.790;18.268;2023-02-11T19:37:36;101522.62;;;4.41;100.00
40171;BME280;37650;52.790;18.268;2023-02-11T19:40:58;101525.73;;;4.39;100.00
40171;BME280;37650;52.790;18.268;2023-02-11T19:44:23;101530.25;;;4.37;100.00
40171;BME280;37650;52.790;18.268;2023-02-11T19:47:45;101539.27;;;4.38;100.00
40171;BME280;37650;52.790;18.268;2023-02-11T19:51:10;101548.64;;;4.35;100.00